createdAt,value
2019-01-29T00:00:43.629Z,74.35
2019-01-29T00:03:12.905Z,74.60
2019-01-29T00:05:42.137Z,74.41
2019-01-29T00:08:11.518Z,74.23
2019-01-29T00:10:40.733Z,74.58
2019-01-29T00:13:10.008Z,74.60
2019-01-29T00:15:39.291Z,74.74
2019-01-29T00:18:08.633Z,74.26
2019-01-29T00:20:37.831Z,74.56
2019-01-29T00:23:07.171Z,75.12
2019-01-29T00:25:36.445Z,75.22
2019-01-29T00:28:05.793Z,75.51
2019-01-29T00:30:35.170Z,75.93
2019-01-29T00:33:04.623Z,75.97
2019-01-29T00:35:33.924Z,76.25
2019-01-29T00:38:03.267Z,76.51
2019-01-29T00:40:32.469Z,76.29
2019-01-29T00:43:01.871Z,76.40
2019-01-29T00:45:31.190Z,76.71
2019-01-29T00:48:00.525Z,76.75
2019-01-29T00:50:29.996Z,76.56
2019-01-29T00:52:59.262Z,76.30
2019-01-29T00:55:28.542Z,75.92
2019-01-29T00:57:57.975Z,75.80
2019-01-29T01:00:27.651Z,75.82
2019-01-29T01:02:56.891Z,75.89
2019-01-29T01:05:26.133Z,76.12
2019-01-29T01:07:55.362Z,76.13
2019-01-29T01:10:24.864Z,76.50
2019-01-29T01:12:54.262Z,76.55
2019-01-29T01:15:23.499Z,76.70
2019-01-29T01:17:52.774Z,76.65
2019-01-29T01:20:24.043Z,76.91
2019-01-29T01:22:53.412Z,76.91
2019-01-29T01:25:22.673Z,76.86
2019-01-29T01:27:52.054Z,76.86
2019-01-29T01:30:21.398Z,76.65
2019-01-29T01:32:50.921Z,76.64
2019-01-29T01:35:20.146Z,76.66
2019-01-29T01:37:49.487Z,76.78
2019-01-29T01:40:24.192Z,76.89
2019-01-29T01:42:53.442Z,76.94
2019-01-29T01:45:22.698Z,77.00
2019-01-29T01:47:52.585Z,77.09
2019-01-29T01:50:22.516Z,76.82
2019-01-29T01:53:43.505Z,76.96
2019-01-29T01:56:13.564Z,77.12
2019-01-29T01:59:01.074Z,77.27
2019-01-29T02:01:30.340Z,77.54
2019-01-29T02:03:59.687Z,77.67
2019-01-29T02:06:29.273Z,78.01
2019-01-29T02:08:58.503Z,77.95
2019-01-29T02:11:27.876Z,77.96
2019-01-29T02:13:57.118Z,78.25
2019-01-29T02:16:26.478Z,77.68
2019-01-29T02:18:55.707Z,77.66
2019-01-29T02:21:24.972Z,77.69
2019-01-29T02:23:54.199Z,77.45
2019-01-29T02:26:23.446Z,77.75
2019-01-29T02:28:52.676Z,77.80
2019-01-29T02:31:22.028Z,77.88
2019-01-29T02:33:51.376Z,77.90
2019-01-29T02:36:20.603Z,77.80
2019-01-29T02:38:49.818Z,77.81
2019-01-29T02:41:19.206Z,77.82
2019-01-29T02:43:48.537Z,77.93
2019-01-29T02:46:17.861Z,77.94
2019-01-29T02:48:47.199Z,78.11
2019-01-29T02:51:17.951Z,78.28
2019-01-29T02:53:47.373Z,78.25
2019-01-29T02:56:16.610Z,78.47
2019-01-29T02:58:45.810Z,78.33
2019-01-29T03:01:15.042Z,78.41
2019-01-29T03:03:44.237Z,78.60
2019-01-29T03:06:13.833Z,78.71
2019-01-29T03:08:43.037Z,78.85
2019-01-29T03:11:12.299Z,78.75
2019-01-29T03:13:41.703Z,78.94
2019-01-29T03:16:11.047Z,79.07
2019-01-29T03:18:40.252Z,79.07
2019-01-29T03:21:09.747Z,79.13
2019-01-29T03:23:39.062Z,79.40
2019-01-29T03:26:08.454Z,79.57
2019-01-29T03:28:37.906Z,79.21
2019-01-29T03:31:07.146Z,79.30
2019-01-29T03:33:36.424Z,79.62
2019-01-29T03:36:05.787Z,79.70
2019-01-29T03:38:35.021Z,79.99
2019-01-29T03:41:04.260Z,79.69
2019-01-29T03:43:33.587Z,79.56
2019-01-29T03:46:02.835Z,79.54
2019-01-29T03:48:32.058Z,79.67
2019-01-29T03:51:03.299Z,79.81
2019-01-29T03:53:38.153Z,79.95
2019-01-29T03:56:03.377Z,79.85
2019-01-29T03:58:32.620Z,80.19
2019-01-29T04:01:01.873Z,80.02
2019-01-29T04:03:31.286Z,79.96
2019-01-29T04:06:00.550Z,79.69
2019-01-29T04:08:29.891Z,79.94
2019-01-29T04:10:59.115Z,80.04
2019-01-29T04:13:28.437Z,79.86
2019-01-29T04:15:57.722Z,80.08
2019-01-29T04:18:27.048Z,79.64
2019-01-29T04:20:56.419Z,79.82
2019-01-29T04:23:25.756Z,80.20
2019-01-29T04:25:55.123Z,80.16
2019-01-29T04:28:24.321Z,79.90
2019-01-29T04:30:53.770Z,80.13
2019-01-29T04:33:22.979Z,79.93
2019-01-29T04:35:52.220Z,80.05
2019-01-29T04:38:21.476Z,80.12
2019-01-29T04:40:50.718Z,80.26
2019-01-29T04:43:20.159Z,80.37
2019-01-29T04:45:49.378Z,80.18
2019-01-29T04:48:18.594Z,80.29
2019-01-29T04:50:47.861Z,80.16
2019-01-29T04:53:17.129Z,80.18
2019-01-29T04:55:46.361Z,80.37
2019-01-29T04:58:15.578Z,80.33
2019-01-29T05:00:44.950Z,80.53
2019-01-29T05:03:14.241Z,80.49
2019-01-29T05:05:43.478Z,80.66
2019-01-29T05:08:12.668Z,81.04
2019-01-29T05:10:41.924Z,80.70
2019-01-29T05:13:11.258Z,80.67
2019-01-29T05:15:40.605Z,80.83
2019-01-29T05:18:09.883Z,80.89
2019-01-29T05:20:39.165Z,81.04
2019-01-29T05:23:08.528Z,81.45
2019-01-29T05:25:37.889Z,81.53
2019-01-29T05:28:07.159Z,80.94
2019-01-29T05:30:36.430Z,80.85
2019-01-29T05:33:05.631Z,80.91
2019-01-29T05:35:34.915Z,80.87
2019-01-29T05:38:04.338Z,81.23
2019-01-29T05:40:33.784Z,81.23
2019-01-29T05:43:02.987Z,81.35
2019-01-29T05:45:32.307Z,81.28
2019-01-29T05:48:01.566Z,81.22
2019-01-29T05:50:30.844Z,81.40
2019-01-29T05:53:00.084Z,81.21
2019-01-29T05:55:29.351Z,81.21
2019-01-29T05:57:58.699Z,81.12
2019-01-29T06:00:33.167Z,81.07
2019-01-29T06:03:02.472Z,81.21
2019-01-29T06:05:31.913Z,81.40
2019-01-29T06:08:01.178Z,81.42
2019-01-29T06:10:30.401Z,81.47
2019-01-29T06:12:59.757Z,81.61
2019-01-29T06:15:29.150Z,81.80
2019-01-29T06:17:58.646Z,81.81
2019-01-29T06:20:28.624Z,81.91
2019-01-29T06:22:57.930Z,82.10
2019-01-29T06:25:27.202Z,82.23
2019-01-29T06:27:56.459Z,82.05
2019-01-29T06:30:26.130Z,82.11
2019-01-29T06:32:55.397Z,82.04
2019-01-29T06:35:24.750Z,81.82
2019-01-29T06:37:54.054Z,81.82
2019-01-29T06:40:25.257Z,82.69
2019-01-29T06:42:54.622Z,82.21
2019-01-29T06:45:24.340Z,82.24
2019-01-29T06:47:53.759Z,81.80
2019-01-29T06:50:24.827Z,81.59
2019-01-29T06:52:54.311Z,81.67
2019-01-29T06:55:23.964Z,82.07
2019-01-29T06:57:55.464Z,81.92
2019-01-29T07:00:29.306Z,81.46
2019-01-29T07:02:59.498Z,81.71
2019-01-29T07:05:28.935Z,81.59
2019-01-29T07:07:58.199Z,81.57
2019-01-29T07:10:28.279Z,81.73
2019-01-29T07:12:57.652Z,81.61
2019-01-29T07:15:45.541Z,81.74
2019-01-29T07:18:36.771Z,81.67
2019-01-29T07:21:09.088Z,81.93
2019-01-29T07:23:38.309Z,81.77
2019-01-29T07:26:07.560Z,82.06
2019-01-29T07:28:36.831Z,82.12
2019-01-29T07:31:06.379Z,82.10
2019-01-29T07:33:35.610Z,82.17
2019-01-29T07:36:04.867Z,82.26
2019-01-29T07:38:34.106Z,82.36
2019-01-29T07:41:03.820Z,82.50
2019-01-29T07:43:33.023Z,82.62
2019-01-29T07:46:02.279Z,82.84
2019-01-29T07:48:31.520Z,82.66
2019-01-29T07:51:00.791Z,82.78
2019-01-29T07:53:30.120Z,82.85
2019-01-29T07:55:59.424Z,82.47
2019-01-29T07:58:28.727Z,82.53
2019-01-29T08:00:58.039Z,82.55
2019-01-29T08:03:27.287Z,82.38
2019-01-29T08:05:57.290Z,82.36
2019-01-29T08:08:26.521Z,82.10
2019-01-29T08:10:55.771Z,82.25
2019-01-29T08:13:25.340Z,82.06
2019-01-29T08:15:54.608Z,82.01
2019-01-29T08:18:23.994Z,82.08
2019-01-29T08:20:53.252Z,81.88
2019-01-29T08:23:22.516Z,81.96
2019-01-29T08:25:51.891Z,81.91
2019-01-29T08:28:21.257Z,82.01
2019-01-29T08:30:50.754Z,81.71
2019-01-29T08:33:19.997Z,81.73
2019-01-29T08:35:49.267Z,81.65
2019-01-29T08:38:18.504Z,81.58
2019-01-29T08:40:47.755Z,81.19
2019-01-29T08:43:17.118Z,81.07
2019-01-29T08:45:46.438Z,81.28
2019-01-29T08:48:15.674Z,81.42
2019-01-29T08:50:44.956Z,81.19
2019-01-29T08:53:14.226Z,80.86
2019-01-29T08:55:43.486Z,80.71
2019-01-29T08:58:12.730Z,80.89
2019-01-29T09:00:42.052Z,81.03
2019-01-29T09:03:11.316Z,80.80
2019-01-29T09:05:40.778Z,80.95
2019-01-29T09:08:10.141Z,80.65
2019-01-29T09:10:39.479Z,80.62
2019-01-29T09:13:08.740Z,81.07
2019-01-29T09:15:38.008Z,80.89
2019-01-29T09:18:07.385Z,80.73
2019-01-29T09:20:36.764Z,80.70
2019-01-29T09:23:06.116Z,80.73
2019-01-29T09:25:35.433Z,80.70
2019-01-29T09:28:04.786Z,80.46
2019-01-29T09:30:34.163Z,80.36
2019-01-29T09:33:03.502Z,79.73
2019-01-29T09:39:01.686Z,79.67
2019-01-29T09:41:31.084Z,79.65
2019-01-29T09:44:00.365Z,79.75
2019-01-29T09:46:29.656Z,79.62
2019-01-29T09:48:58.935Z,79.67
2019-01-29T09:51:28.311Z,79.34
2019-01-29T09:54:13.065Z,79.22
2019-01-29T09:56:42.398Z,79.42
2019-01-29T09:59:11.750Z,79.82
2019-01-29T10:01:40.990Z,78.58
2019-01-29T10:04:10.401Z,78.63
2019-01-29T10:06:39.732Z,78.33
2019-01-29T10:09:09.937Z,78.29
2019-01-29T10:11:39.666Z,78.32
2019-01-29T10:14:08.955Z,78.02
2019-01-29T10:16:38.688Z,77.43
2019-01-29T10:19:08.178Z,77.15
2019-01-29T10:21:37.990Z,77.17
2019-01-29T10:24:07.305Z,77.33
2019-01-29T10:26:36.577Z,77.20
2019-01-29T10:29:06.115Z,75.89
2019-01-29T10:31:35.492Z,74.59
2019-01-29T10:34:05.084Z,74.09
2019-01-29T10:36:36.398Z,73.61
2019-01-29T10:39:09.606Z,73.00
2019-01-29T10:41:38.881Z,72.41
2019-01-29T10:44:08.214Z,71.80
2019-01-29T10:46:37.558Z,72.38
2019-01-29T10:49:06.886Z,71.67
2019-01-29T10:51:36.155Z,71.65
2019-01-29T10:54:05.640Z,70.91
2019-01-29T10:56:34.863Z,70.25
2019-01-29T10:59:04.227Z,69.87
2019-01-29T11:01:33.603Z,69.47
2019-01-29T11:04:02.941Z,69.08
2019-01-29T11:06:32.171Z,69.36
2019-01-29T11:09:01.444Z,69.45
2019-01-29T11:11:30.695Z,69.47
2019-01-29T11:14:00.035Z,69.89
2019-01-29T11:16:29.411Z,69.39
2019-01-29T11:19:03.408Z,70.05
2019-01-29T11:21:29.691Z,70.16
2019-01-29T11:23:58.994Z,69.71
2019-01-29T11:26:28.216Z,70.01
2019-01-29T11:28:57.468Z,69.67
2019-01-29T11:31:26.820Z,69.53
2019-01-29T11:33:56.166Z,69.21
2019-01-29T11:40:07.855Z,68.84
2019-01-29T11:42:37.165Z,69.46
2019-01-29T11:45:08.894Z,69.25
2019-01-29T11:47:38.131Z,68.92
2019-01-29T11:50:08.429Z,68.81
2019-01-29T11:52:37.661Z,69.23
2019-01-29T11:55:07.434Z,69.45
2019-01-29T11:57:36.832Z,69.57
2019-01-29T12:00:08.818Z,69.45
2019-01-29T12:02:38.213Z,69.17
2019-01-29T12:05:07.545Z,68.79
2019-01-29T12:07:36.751Z,68.92
2019-01-29T12:10:07.172Z,67.88
2019-01-29T12:12:36.541Z,67.98
2019-01-29T12:15:07.889Z,68.74
2019-01-29T12:17:37.134Z,69.03
2019-01-29T12:20:07.286Z,69.36
2019-01-29T12:22:36.553Z,69.71
2019-01-29T12:25:06.250Z,69.58
2019-01-29T12:27:36.657Z,70.08
2019-01-29T12:30:08.575Z,70.39
2019-01-29T12:32:37.832Z,70.93
2019-01-29T12:35:07.985Z,71.08
2019-01-29T12:37:37.212Z,71.35
2019-01-29T12:40:07.343Z,71.42
2019-01-29T12:42:36.592Z,71.37
2019-01-29T12:45:07.425Z,71.56
2019-01-29T12:47:36.681Z,71.54
2019-01-29T12:50:08.589Z,71.89
2019-01-29T12:52:46.541Z,71.95
2019-01-29T12:55:15.830Z,72.19
2019-01-29T12:57:45.301Z,71.84
2019-01-29T13:00:16.477Z,72.07
2019-01-29T13:02:45.863Z,71.97
2019-01-29T13:05:15.296Z,71.62
2019-01-29T13:07:44.644Z,71.17
2019-01-29T13:10:17.680Z,70.52
2019-01-29T13:12:47.034Z,70.70
2019-01-29T13:15:19.058Z,69.75
2019-01-29T13:17:48.487Z,69.37
2019-01-29T13:20:17.808Z,69.42
2019-01-29T13:22:47.085Z,68.90
2019-01-29T13:25:17.187Z,69.86
2019-01-29T13:27:46.552Z,70.13
2019-01-29T13:30:26.983Z,69.62
2019-01-29T13:32:56.262Z,69.93
2019-01-29T13:35:27.940Z,70.38
2019-01-29T13:37:57.214Z,70.65
2019-01-29T13:40:26.439Z,71.75
2019-01-29T13:42:55.791Z,71.45
2019-01-29T13:45:25.994Z,71.10
2019-01-29T13:47:56.428Z,71.32
2019-01-29T13:50:32.358Z,71.49
2019-01-29T13:53:02.153Z,71.88
2019-01-29T13:55:31.629Z,71.07
2019-01-29T13:58:00.947Z,71.02
2019-01-29T14:00:32.161Z,71.56
2019-01-29T14:03:02.200Z,71.85
2019-01-29T14:05:31.446Z,71.61
2019-01-29T14:08:00.763Z,71.89
2019-01-29T14:10:30.078Z,71.65
2019-01-29T14:12:59.477Z,71.96
2019-01-29T14:15:39.625Z,72.17
2019-01-29T14:18:09.316Z,72.14
2019-01-29T14:20:38.573Z,71.52
2019-01-29T14:23:09.161Z,71.14
2019-01-29T14:25:38.899Z,70.80
2019-01-29T14:28:08.700Z,71.11
2019-01-29T14:30:38.084Z,71.23
2019-01-29T14:33:08.506Z,70.93
2019-01-29T14:35:37.988Z,71.30
2019-01-29T14:38:43.367Z,71.64
2019-01-29T14:41:12.818Z,71.75
2019-01-29T14:43:45.419Z,71.10
2019-01-29T14:46:15.067Z,71.55
2019-01-29T14:48:44.558Z,71.67
2019-01-29T14:51:13.951Z,72.09
2019-01-29T14:53:43.531Z,72.31
2019-01-29T14:56:12.979Z,72.21
2019-01-29T14:58:42.402Z,71.67
2019-01-29T15:01:11.818Z,71.50
2019-01-29T15:03:41.083Z,71.68
2019-01-29T15:06:10.371Z,71.83
2019-01-29T15:12:08.396Z,72.34
2019-01-29T15:14:37.935Z,72.52
2019-01-29T15:17:25.043Z,72.21
2019-01-29T15:19:54.412Z,72.30
2019-01-29T15:22:23.705Z,72.10
2019-01-29T15:24:53.064Z,71.64
2019-01-29T15:27:23.697Z,71.72
2019-01-29T15:29:53.621Z,70.90
2019-01-29T15:32:23.082Z,71.18
2019-01-29T15:34:52.505Z,71.59
2019-01-29T15:37:21.990Z,71.56
2019-01-29T15:39:51.335Z,71.79
2019-01-29T15:42:20.877Z,71.99
2019-01-29T15:44:50.185Z,71.58
2019-01-29T15:47:19.565Z,71.65
2019-01-29T15:49:49.135Z,71.59
2019-01-29T15:52:18.383Z,71.37
2019-01-29T15:54:47.655Z,71.46
2019-01-29T15:57:17.026Z,71.23
2019-01-29T15:59:46.288Z,71.23
2019-01-29T16:02:15.600Z,70.82
2019-01-29T16:04:44.970Z,70.93
2019-01-29T16:07:14.313Z,70.85
2019-01-29T16:13:11.909Z,70.80
2019-01-29T16:16:05.074Z,71.14
2019-01-29T16:18:34.499Z,71.33
2019-01-29T16:21:03.875Z,71.57
2019-01-29T16:23:34.782Z,71.93
2019-01-29T16:26:05.130Z,72.26
2019-01-29T16:28:35.333Z,72.19
2019-01-29T16:31:05.696Z,72.29
2019-01-29T16:33:36.028Z,72.43
2019-01-29T16:36:06.277Z,72.27
2019-01-29T16:38:36.726Z,72.51
2019-01-29T16:41:06.026Z,72.38
2019-01-29T16:43:35.362Z,72.97
2019-01-29T16:46:04.661Z,73.19
2019-01-29T16:48:33.953Z,73.38
2019-01-29T16:51:03.245Z,73.47
2019-01-29T16:53:32.535Z,73.51
2019-01-29T16:57:14.082Z,73.41
2019-01-29T16:59:43.436Z,73.94
2019-01-29T17:02:33.807Z,74.01
2019-01-29T17:05:03.097Z,74.24
2019-01-29T17:07:33.008Z,74.60
2019-01-29T17:10:47.602Z,74.74
2019-01-29T17:13:16.966Z,74.93
2019-01-29T17:15:46.362Z,74.89
2019-01-29T17:18:15.692Z,74.84
2019-01-29T17:20:44.944Z,75.11
2019-01-29T17:23:14.454Z,75.02
2019-01-29T17:29:37.886Z,75.34
2019-01-29T17:32:07.125Z,75.58
2019-01-29T17:34:39.280Z,75.49
2019-01-29T17:37:08.947Z,75.59
2019-01-29T17:39:38.678Z,75.59
2019-01-29T17:42:08.071Z,75.80
2019-01-29T17:44:37.372Z,75.59
2019-01-29T17:47:06.677Z,75.50
2019-01-29T17:49:36.224Z,75.50
2019-01-29T17:52:05.596Z,74.94
2019-01-29T17:54:35.159Z,74.96
2019-01-29T17:57:05.168Z,75.10
2019-01-29T17:59:37.222Z,75.03
2019-01-29T18:02:18.181Z,74.92
2019-01-29T18:05:34.918Z,74.57
2019-01-29T18:08:05.523Z,74.17
2019-01-29T18:10:35.707Z,74.59
2019-01-29T18:13:05.600Z,74.81
2019-01-29T18:15:35.755Z,74.58
2019-01-29T18:18:05.763Z,74.53
2019-01-29T18:20:36.156Z,74.88
2019-01-29T18:23:06.159Z,74.76
2019-01-29T18:25:36.151Z,74.73
2019-01-29T18:28:08.453Z,74.78
2019-01-29T18:30:37.296Z,74.90
2019-01-29T18:33:07.787Z,74.69
2019-01-29T18:35:37.121Z,74.57
2019-01-29T18:38:06.439Z,74.72
2019-01-29T18:40:39.212Z,74.88
2019-01-29T18:43:08.614Z,75.44
2019-01-29T18:45:37.924Z,75.67
2019-01-29T18:48:07.448Z,75.79
2019-01-29T18:50:36.886Z,75.90
2019-01-29T18:53:06.416Z,75.90
2019-01-29T18:55:35.764Z,76.04
2019-01-29T18:58:11.404Z,75.93
2019-01-29T19:00:36.475Z,75.63
2019-01-29T19:03:06.208Z,75.56
2019-01-29T19:05:35.792Z,75.71
2019-01-29T19:08:05.150Z,75.88
2019-01-29T19:10:34.632Z,75.92
2019-01-29T19:13:03.863Z,75.98
2019-01-29T19:15:33.139Z,75.95
2019-01-29T19:18:02.453Z,76.16
2019-01-29T19:20:31.800Z,76.25
2019-01-29T19:23:01.258Z,76.17
2019-01-29T19:25:30.664Z,76.33
2019-01-29T19:28:09.230Z,76.48
2019-01-29T19:30:38.579Z,76.92
2019-01-29T19:33:08.057Z,76.81
2019-01-29T19:35:37.611Z,76.64
2019-01-29T19:38:06.965Z,76.94
2019-01-29T19:40:36.527Z,77.24
2019-01-29T19:43:05.962Z,77.37
2019-01-29T19:45:36.454Z,77.55
2019-01-29T19:48:07.405Z,77.74
2019-01-29T19:50:37.247Z,77.78
2019-01-29T19:56:34.819Z,77.34
2019-01-29T19:59:04.372Z,77.54
2019-01-29T20:01:34.423Z,77.60
2019-01-29T20:04:04.292Z,77.63
2019-01-29T20:06:34.145Z,77.49
2019-01-29T20:09:04.921Z,77.41
2019-01-29T20:11:34.555Z,77.58
2019-01-29T20:14:05.258Z,77.62
2019-01-29T20:16:34.733Z,77.84
2019-01-29T20:19:04.394Z,77.87
2019-01-29T20:21:33.985Z,77.35
2019-01-29T20:24:03.588Z,77.67
2019-01-29T20:26:33.072Z,77.66
2019-01-29T20:29:03.027Z,77.95
2019-01-29T20:31:32.787Z,78.25
2019-01-29T20:34:02.379Z,77.79
2019-01-29T20:36:32.123Z,77.68
2019-01-29T20:39:02.164Z,77.91
2019-01-29T20:41:31.797Z,78.42
2019-01-29T20:44:01.334Z,78.40
2019-01-29T20:46:31.414Z,78.19
2019-01-29T20:49:01.093Z,78.16
2019-01-29T20:51:30.683Z,78.57
2019-01-29T20:54:00.694Z,78.52
2019-01-29T20:56:30.340Z,78.16
2019-01-29T20:58:59.980Z,78.22
2019-01-29T21:01:29.669Z,78.04
2019-01-29T21:07:27.724Z,78.62
2019-01-29T21:09:57.381Z,78.66
2019-01-29T21:12:27.018Z,78.85
2019-01-29T21:14:56.656Z,78.98
2019-01-29T21:17:26.186Z,79.02
2019-01-29T21:19:55.925Z,79.10
2019-01-29T21:22:25.437Z,78.99
2019-01-29T21:24:55.445Z,78.98
2019-01-29T21:27:25.244Z,79.27
2019-01-29T21:29:54.657Z,79.61
2019-01-29T21:32:25.292Z,79.75
2019-01-29T21:34:55.001Z,79.61
2019-01-29T21:37:25.362Z,79.60
2019-01-29T21:39:55.275Z,79.56
2019-01-29T21:42:24.964Z,79.44
2019-01-29T21:44:54.342Z,79.52
2019-01-29T21:47:23.919Z,79.45
2019-01-29T21:53:22.222Z,79.51
2019-01-29T21:56:27.696Z,79.59
2019-01-29T21:58:57.194Z,79.96
2019-01-29T22:01:26.851Z,79.91
2019-01-29T22:03:56.235Z,79.86
2019-01-29T22:06:25.928Z,79.82
2019-01-29T22:08:55.307Z,79.78
2019-01-29T22:11:24.749Z,79.74
2019-01-29T22:13:54.150Z,79.07
2019-01-29T22:16:23.600Z,79.29
2019-01-29T22:18:52.932Z,79.28
2019-01-29T22:21:22.451Z,78.62
2019-01-29T22:23:52.045Z,78.89
2019-01-29T22:26:21.553Z,79.26
2019-01-29T22:28:50.945Z,79.51
2019-01-29T22:31:20.435Z,79.29
2019-01-29T22:33:49.765Z,79.28
2019-01-29T22:36:19.097Z,79.56
2019-01-29T22:38:48.705Z,79.67
2019-01-29T22:41:17.998Z,79.97
2019-01-29T22:43:47.417Z,80.23
2019-01-29T22:46:17.254Z,80.16
2019-01-29T22:49:34.908Z,79.64
2019-01-29T22:52:04.361Z,79.73
2019-01-29T22:54:33.641Z,79.88
2019-01-29T22:57:02.950Z,80.32
2019-01-29T22:59:33.388Z,80.13
2019-01-29T23:02:03.075Z,80.14
2019-01-29T23:04:35.882Z,80.21
2019-01-29T23:07:23.388Z,80.54
2019-01-29T23:09:52.770Z,80.72
2019-01-29T23:12:22.204Z,80.63
2019-01-29T23:14:51.512Z,80.37
2019-01-29T23:17:21.151Z,80.50
2019-01-29T23:19:50.472Z,80.33
2019-01-29T23:22:19.720Z,80.39
2019-01-29T23:24:49.103Z,80.69
2019-01-29T23:27:18.373Z,80.79
2019-01-29T23:29:47.740Z,80.97
2019-01-29T23:32:17.180Z,80.95
2019-01-29T23:34:46.540Z,80.75
2019-01-29T23:37:15.981Z,80.50
2019-01-29T23:39:45.310Z,80.84
2019-01-29T23:42:14.683Z,81.12
2019-01-29T23:44:44.040Z,80.84
2019-01-29T23:47:13.372Z,80.76
2019-01-29T23:49:42.698Z,80.49
2019-01-29T23:52:11.996Z,80.53
2019-01-29T23:54:41.235Z,80.65
2019-01-29T23:57:10.737Z,80.86
2019-01-29T23:59:39.971Z,80.86
